sensor_id;sensor_type;location;lat;lon;timestamp;pressure;altitude;pressure_sealevel;temperature;humidity
6024;BME280;3040;42.654;23.296;2022-11-25T00:01:51;93982.22;;;5.40;79.23
6024;BME280;3040;42.654;23.296;2022-11-25T00:04:18;93994.16;;;5.37;78.44
6024;BME280;3040;42.654;23.296;2022-11-25T00:06:45;93995.09;;;5.41;78.98
6024;BME280;3040;42.654;23.296;2022-11-25T00:09:13;93994.00;;;5.51;78.48
6024;BME280;3040;42.654;23.296;2022-11-25T00:11:40;94004.72;;;5.46;78.06
6024;BME280;3040;42.654;23.296;2022-11-25T00:14:11;94000.22;;;5.46;78.01
6024;BME280;3040;42.654;23.296;2022-11-25T00:16:39;94010.00;;;5.54;77.16
6024;BME280;3040;42.654;23.296;2022-11-25T00:19:05;94021.31;;;5.46;78.00
6024;BME280;3040;42.654;23.296;2022-11-25T00:21:33;94014.19;;;5.47;78.28
6024;BME280;3040;42.654;23.296;2022-11-25T00:24:01;94021.13;;;5.43;78.42
6024;BME280;3040;42.654;23.296;2022-11-25T00:26:31;93979.72;;;5.17;78.09
6024;BME280;3040;42.654;23.296;2022-11-25T00:29:01;94014.78;;;5.44;78.65
6024;BME280;3040;42.654;23.296;2022-11-25T00:31:30;94009.97;;;5.37;78.80
6024;BME280;3040;42.654;23.296;2022-11-25T00:33:57;93927.56;;;4.63;79.40
6024;BME280;3040;42.654;23.296;2022-11-25T00:36:26;94006.38;;;5.24;80.32
6024;BME280;3040;42.654;23.296;2022-11-25T00:38:53;94010.56;;;5.25;80.49
6024;BME280;3040;42.654;23.296;2022-11-25T00:41:20;94025.28;;;5.09;80.97
6024;BME280;3040;42.654;23.296;2022-11-25T00:44:08;94028.09;;;5.21;81.07
6024;BME280;3040;42.654;23.296;2022-11-25T00:46:52;94019.72;;;5.19;81.11
6024;BME280;3040;42.654;23.296;2022-11-25T00:49:19;94012.28;;;5.21;81.00
6024;BME280;3040;42.654;23.296;2022-11-25T00:51:46;94017.72;;;5.25;80.59
6024;BME280;3040;42.654;23.296;2022-11-25T00:54:13;94016.31;;;5.27;80.31
6024;BME280;3040;42.654;23.296;2022-11-25T00:56:40;94015.53;;;5.27;79.97
6024;BME280;3040;42.654;23.296;2022-11-25T00:59:09;94001.91;;;5.16;80.48
6024;BME280;3040;42.654;23.296;2022-11-25T01:01:35;94015.09;;;5.33;80.30
6024;BME280;3040;42.654;23.296;2022-11-25T01:04:03;93937.81;;;4.73;80.12
6024;BME280;3040;42.654;23.296;2022-11-25T01:06:30;94024.72;;;5.29;79.88
6024;BME280;3040;42.654;23.296;2022-11-25T01:08:57;94019.88;;;5.31;80.58
6024;BME280;3040;42.654;23.296;2022-11-25T01:11:24;94035.25;;;5.29;80.52
6024;BME280;3040;42.654;23.296;2022-11-25T01:13:51;94006.38;;;5.24;79.62
6024;BME280;3040;42.654;23.296;2022-11-25T01:16:22;93917.97;;;4.67;79.66
6024;BME280;3040;42.654;23.296;2022-11-25T01:18:49;94026.25;;;5.30;79.99
6024;BME280;3040;42.654;23.296;2022-11-25T01:21:18;94001.25;;;5.19;79.95
6024;BME280;3040;42.654;23.296;2022-11-25T01:23:45;94016.00;;;5.38;79.85
6024;BME280;3040;42.654;23.296;2022-11-25T01:26:14;94008.56;;;5.31;78.83
6024;BME280;3040;42.654;23.296;2022-11-25T01:28:41;94017.09;;;5.37;79.46
6024;BME280;3040;42.654;23.296;2022-11-25T01:31:11;93995.41;;;5.40;78.82
6024;BME280;3040;42.654;23.296;2022-11-25T01:33:41;94008.44;;;5.36;79.04
6024;BME280;3040;42.654;23.296;2022-11-25T01:36:09;94020.06;;;5.44;78.81
6024;BME280;3040;42.654;23.296;2022-11-25T01:38:37;94001.16;;;5.42;78.73
6024;BME280;3040;42.654;23.296;2022-11-25T01:41:04;94000.34;;;5.50;77.19
6024;BME280;3040;42.654;23.296;2022-11-25T01:43:31;93987.94;;;5.50;77.99
6024;BME280;3040;42.654;23.296;2022-11-25T01:46:04;93980.34;;;5.49;76.81
6024;BME280;3040;42.654;23.296;2022-11-25T01:48:37;93968.53;;;5.55;75.76
6024;BME280;3040;42.654;23.296;2022-11-25T01:51:15;93973.22;;;5.58;75.55
6024;BME280;3040;42.654;23.296;2022-11-25T01:53:44;93982.03;;;5.62;75.85
6024;BME280;3040;42.654;23.296;2022-11-25T01:56:11;93977.25;;;5.64;75.15
6024;BME280;3040;42.654;23.296;2022-11-25T01:58:39;93955.84;;;5.57;74.64
6024;BME280;3040;42.654;23.296;2022-11-25T02:01:06;93965.00;;;5.59;74.78
6024;BME280;3040;42.654;23.296;2022-11-25T02:03:39;93987.00;;;5.63;74.27
6024;BME280;3040;42.654;23.296;2022-11-25T02:06:12;93986.88;;;5.60;74.99
6024;BME280;3040;42.654;23.296;2022-11-25T02:08:42;93983.28;;;5.64;74.66
6024;BME280;3040;42.654;23.296;2022-11-25T02:11:13;93972.13;;;5.59;74.23
6024;BME280;3040;42.654;23.296;2022-11-25T02:13:41;93987.47;;;5.57;74.68
6024;BME280;3040;42.654;23.296;2022-11-25T02:16:08;93995.22;;;5.62;74.79
6024;BME280;3040;42.654;23.296;2022-11-25T02:18:35;93992.28;;;5.63;75.22
6024;BME280;3040;42.654;23.296;2022-11-25T02:21:02;94006.41;;;5.59;75.39
6024;BME280;3040;42.654;23.296;2022-11-25T02:23:35;94001.91;;;5.59;74.25
6024;BME280;3040;42.654;23.296;2022-11-25T02:26:04;93979.41;;;5.45;74.88
6024;BME280;3040;42.654;23.296;2022-11-25T02:28:32;94011.53;;;5.55;75.31
6024;BME280;3040;42.654;23.296;2022-11-25T02:30:59;94003.47;;;5.52;74.91
6024;BME280;3040;42.654;23.296;2022-11-25T02:33:26;93974.78;;;5.42;74.59
6024;BME280;3040;42.654;23.296;2022-11-25T02:35:54;94009.81;;;5.51;74.52
6024;BME280;3040;42.654;23.296;2022-11-25T02:38:23;94005.97;;;5.48;75.27
6024;BME280;3040;42.654;23.296;2022-11-25T02:40:54;94015.09;;;5.51;74.03
6024;BME280;3040;42.654;23.296;2022-11-25T02:43:25;94002.06;;;5.46;73.58
6024;BME280;3040;42.654;23.296;2022-11-25T02:45:57;93995.69;;;5.38;73.58
6024;BME280;3040;42.654;23.296;2022-11-25T02:48:26;94019.13;;;5.57;73.20
6024;BME280;3040;42.654;23.296;2022-11-25T02:50:53;94025.19;;;5.57;73.99
6024;BME280;3040;42.654;23.296;2022-11-25T02:53:20;94026.56;;;5.55;73.95
6024;BME280;3040;42.654;23.296;2022-11-25T02:55:47;94010.75;;;5.55;74.43
6024;BME280;3040;42.654;23.296;2022-11-25T02:58:14;94018.22;;;5.53;75.13
6024;BME280;3040;42.654;23.296;2022-11-25T03:00:43;94005.31;;;5.43;75.88
6024;BME280;3040;42.654;23.296;2022-11-25T03:03:11;93999.59;;;5.23;75.21
6024;BME280;3040;42.654;23.296;2022-11-25T03:05:38;94030.16;;;5.42;76.29
6024;BME280;3040;42.654;23.296;2022-11-25T03:08:05;94008.88;;;5.29;76.19
6024;BME280;3040;42.654;23.296;2022-11-25T03:10:32;94027.81;;;5.49;76.26
6024;BME280;3040;42.654;23.296;2022-11-25T03:13:00;94030.00;;;5.47;75.95
6024;BME280;3040;42.654;23.296;2022-11-25T03:15:27;94026.75;;;5.41;77.22
6024;BME280;3040;42.654;23.296;2022-11-25T03:17:56;94034.31;;;5.43;77.08
6024;BME280;3040;42.654;23.296;2022-11-25T03:20:23;94032.78;;;5.42;77.47
6024;BME280;3040;42.654;23.296;2022-11-25T03:22:50;94026.09;;;5.44;77.55
6024;BME280;3040;42.654;23.296;2022-11-25T03:25:17;94043.47;;;5.37;78.42
6024;BME280;3040;42.654;23.296;2022-11-25T03:27:44;94048.00;;;5.36;78.65
6024;BME280;3040;42.654;23.296;2022-11-25T03:30:13;94037.44;;;5.36;78.79
6024;BME280;3040;42.654;23.296;2022-11-25T03:32:40;94047.97;;;5.27;79.21
6024;BME280;3040;42.654;23.296;2022-11-25T03:35:09;94052.59;;;5.30;80.05
6024;BME280;3040;42.654;23.296;2022-11-25T03:37:37;94049.03;;;5.26;80.24
6024;BME280;3040;42.654;23.296;2022-11-25T03:40:06;94036.50;;;5.23;81.38
6024;BME280;3040;42.654;23.296;2022-11-25T03:42:33;94038.94;;;5.20;81.96
6024;BME280;3040;42.654;23.296;2022-11-25T03:45:00;94053.84;;;5.16;81.98
6024;BME280;3040;42.654;23.296;2022-11-25T03:47:27;94062.53;;;5.16;82.10
6024;BME280;3040;42.654;23.296;2022-11-25T03:49:53;94058.63;;;5.14;82.43
6024;BME280;3040;42.654;23.296;2022-11-25T03:52:22;94033.94;;;5.01;82.18
6024;BME280;3040;42.654;23.296;2022-11-25T03:54:49;94061.13;;;5.19;81.81
6024;BME280;3040;42.654;23.296;2022-11-25T03:57:15;94056.31;;;5.12;82.38
6024;BME280;3040;42.654;23.296;2022-11-25T03:59:42;94054.44;;;5.04;82.52
6024;BME280;3040;42.654;23.296;2022-11-25T04:02:09;94063.75;;;5.10;82.15
6024;BME280;3040;42.654;23.296;2022-11-25T04:04:36;94066.22;;;5.15;81.91
6024;BME280;3040;42.654;23.296;2022-11-25T04:07:03;94062.81;;;5.06;82.01
6024;BME280;3040;42.654;23.296;2022-11-25T04:09:31;94069.78;;;5.11;82.04
6024;BME280;3040;42.654;23.296;2022-11-25T04:11:58;94076.00;;;5.15;81.41
6024;BME280;3040;42.654;23.296;2022-11-25T04:14:42;93954.13;;;4.35;81.58
6024;BME280;3040;42.654;23.296;2022-11-25T04:17:09;94063.84;;;4.97;81.85
6024;BME280;3040;42.654;23.296;2022-11-25T04:19:36;94076.44;;;5.08;81.77
6024;BME280;3040;42.654;23.296;2022-11-25T04:22:03;94088.22;;;5.02;82.24
6024;BME280;3040;42.654;23.296;2022-11-25T04:24:29;94065.13;;;5.08;81.64
6024;BME280;3040;42.654;23.296;2022-11-25T04:26:58;94089.75;;;5.03;81.51
6024;BME280;3040;42.654;23.296;2022-11-25T04:29:24;94088.66;;;4.96;81.89
6024;BME280;3040;42.654;23.296;2022-11-25T04:31:51;94095.47;;;4.97;82.76
6024;BME280;3040;42.654;23.296;2022-11-25T04:34:18;94090.66;;;4.90;82.85
6024;BME280;3040;42.654;23.296;2022-11-25T04:36:45;94104.66;;;4.99;82.24
6024;BME280;3040;42.654;23.296;2022-11-25T04:39:12;94094.09;;;4.99;82.37
6024;BME280;3040;42.654;23.296;2022-11-25T04:41:39;94101.38;;;4.94;82.80
6024;BME280;3040;42.654;23.296;2022-11-25T04:44:07;94098.41;;;4.95;82.51
6024;BME280;3040;42.654;23.296;2022-11-25T04:46:37;94098.41;;;4.95;82.56
6024;BME280;3040;42.654;23.296;2022-11-25T04:49:05;94110.50;;;4.96;82.32
6024;BME280;3040;42.654;23.296;2022-11-25T04:51:32;94106.09;;;4.83;82.88
6024;BME280;3040;42.654;23.296;2022-11-25T04:53:58;94105.84;;;4.93;82.51
6024;BME280;3040;42.654;23.296;2022-11-25T04:56:25;94113.75;;;4.93;82.25
6024;BME280;3040;42.654;23.296;2022-11-25T04:58:52;94120.09;;;4.92;82.78
6024;BME280;3040;42.654;23.296;2022-11-25T05:01:37;94109.22;;;4.85;81.86
6024;BME280;3040;42.654;23.296;2022-11-25T05:04:04;94130.38;;;5.02;81.71
6024;BME280;3040;42.654;23.296;2022-11-25T05:06:31;94148.16;;;4.88;81.32
6024;BME280;3040;42.654;23.296;2022-11-25T05:08:58;94150.88;;;5.05;81.15
6024;BME280;3040;42.654;23.296;2022-11-25T05:11:25;94166.69;;;5.05;80.76
6024;BME280;3040;42.654;23.296;2022-11-25T05:13:52;94147.41;;;4.96;80.13
6024;BME280;3040;42.654;23.296;2022-11-25T05:16:18;94172.88;;;5.09;79.95
6024;BME280;3040;42.654;23.296;2022-11-25T05:18:47;94181.28;;;5.11;79.92
6024;BME280;3040;42.654;23.296;2022-11-25T05:21:13;94163.56;;;5.03;79.65
6024;BME280;3040;42.654;23.296;2022-11-25T05:23:40;94165.91;;;5.05;79.56
6024;BME280;3040;42.654;23.296;2022-11-25T05:26:07;94187.13;;;5.08;79.24
6024;BME280;3040;42.654;23.296;2022-11-25T05:28:34;94186.06;;;5.09;78.84
6024;BME280;3040;42.654;23.296;2022-11-25T05:31:01;94190.25;;;5.10;78.34
6024;BME280;3040;42.654;23.296;2022-11-25T05:33:27;94189.31;;;5.06;78.62
6024;BME280;3040;42.654;23.296;2022-11-25T05:35:57;94207.00;;;5.14;78.02
6024;BME280;3040;42.654;23.296;2022-11-25T05:38:24;94197.53;;;5.13;77.66
6024;BME280;3040;42.654;23.296;2022-11-25T05:40:51;94191.47;;;5.04;77.79
6024;BME280;3040;42.654;23.296;2022-11-25T05:43:18;94217.56;;;5.14;78.13
6024;BME280;3040;42.654;23.296;2022-11-25T05:45:45;94218.53;;;5.18;77.41
6024;BME280;3040;42.654;23.296;2022-11-25T05:48:12;94171.19;;;4.82;77.52
6024;BME280;3040;42.654;23.296;2022-11-25T05:50:39;94216.00;;;5.13;77.67
6024;BME280;3040;42.654;23.296;2022-11-25T05:53:07;94222.09;;;5.22;77.78
6024;BME280;3040;42.654;23.296;2022-11-25T05:55:34;94224.75;;;5.22;77.28
6024;BME280;3040;42.654;23.296;2022-11-25T05:58:01;94228.44;;;5.21;77.15
6024;BME280;3040;42.654;23.296;2022-11-25T06:00:30;94214.19;;;5.22;76.62
6024;BME280;3040;42.654;23.296;2022-11-25T06:02:58;94235.00;;;5.32;76.04
6024;BME280;3040;42.654;23.296;2022-11-25T06:05:24;94226.81;;;5.34;76.13
6024;BME280;3040;42.654;23.296;2022-11-25T06:07:51;94233.63;;;5.35;76.07
6024;BME280;3040;42.654;23.296;2022-11-25T06:10:20;94243.75;;;5.42;75.42
6024;BME280;3040;42.654;23.296;2022-11-25T06:12:47;94241.31;;;5.54;75.11
6024;BME280;3040;42.654;23.296;2022-11-25T06:15:15;94234.75;;;5.43;75.30
6024;BME280;3040;42.654;23.296;2022-11-25T06:17:42;94240.63;;;5.40;75.73
6024;BME280;3040;42.654;23.296;2022-11-25T06:20:09;94155.53;;;4.77;75.70
6024;BME280;3040;42.654;23.296;2022-11-25T06:22:36;94256.47;;;5.40;75.63
6024;BME280;3040;42.654;23.296;2022-11-25T06:25:04;94128.31;;;4.60;75.68
6024;BME280;3040;42.654;23.296;2022-11-25T06:27:32;94258.59;;;5.38;75.17
6024;BME280;3040;42.654;23.296;2022-11-25T06:29:59;94280.31;;;5.35;75.20
6024;BME280;3040;42.654;23.296;2022-11-25T06:32:26;94226.53;;;5.13;74.76
6024;BME280;3040;42.654;23.296;2022-11-25T06:34:53;94291.22;;;5.42;74.68
6024;BME280;3040;42.654;23.296;2022-11-25T06:37:20;94289.03;;;5.44;74.68
6024;BME280;3040;42.654;23.296;2022-11-25T06:39:47;94244.63;;;5.28;74.34
6024;BME280;3040;42.654;23.296;2022-11-25T06:42:14;94267.00;;;5.40;74.11
6024;BME280;3040;42.654;23.296;2022-11-25T06:44:42;94281.00;;;5.49;74.52
6024;BME280;3040;42.654;23.296;2022-11-25T06:47:09;94282.91;;;5.57;74.21
6024;BME280;3040;42.654;23.296;2022-11-25T06:49:35;94289.75;;;5.58;74.32
6024;BME280;3040;42.654;23.296;2022-11-25T06:52:02;94284.94;;;5.60;74.26
6024;BME280;3040;42.654;23.296;2022-11-25T06:54:29;94288.38;;;5.60;74.89
6024;BME280;3040;42.654;23.296;2022-11-25T06:56:56;94186.13;;;4.87;74.62
6024;BME280;3040;42.654;23.296;2022-11-25T06:59:23;94291.75;;;5.61;73.46
6024;BME280;3040;42.654;23.296;2022-11-25T07:01:51;94304.50;;;5.59;74.30
6024;BME280;3040;42.654;23.296;2022-11-25T07:04:18;94313.84;;;5.65;74.07
6024;BME280;3040;42.654;23.296;2022-11-25T07:06:45;94299.25;;;5.67;74.13
6024;BME280;3040;42.654;23.296;2022-11-25T07:09:12;94097.25;;;4.39;73.46
6024;BME280;3040;42.654;23.296;2022-11-25T07:11:39;94315.41;;;5.74;72.91
6024;BME280;3040;42.654;23.296;2022-11-25T07:14:09;94300.50;;;5.70;73.45
6024;BME280;3040;42.654;23.296;2022-11-25T07:16:37;94307.97;;;5.77;73.09
6024;BME280;3040;42.654;23.296;2022-11-25T07:19:06;94314.97;;;5.81;72.87
6024;BME280;3040;42.654;23.296;2022-11-25T07:21:34;94304.13;;;5.83;72.29
6024;BME280;3040;42.654;23.296;2022-11-25T07:24:02;94320.88;;;5.78;72.92
6024;BME280;3040;42.654;23.296;2022-11-25T07:26:31;94326.47;;;5.85;72.88
6024;BME280;3040;42.654;23.296;2022-11-25T07:29:00;94309.19;;;5.70;72.94
6024;BME280;3040;42.654;23.296;2022-11-25T07:31:29;94304.69;;;5.71;72.58
6024;BME280;3040;42.654;23.296;2022-11-25T07:33:57;94334.97;;;5.73;72.49
6024;BME280;3040;42.654;23.296;2022-11-25T07:36:26;94303.72;;;5.67;72.78
6024;BME280;3040;42.654;23.296;2022-11-25T07:38:54;94317.13;;;5.79;72.99
6024;BME280;3040;42.654;23.296;2022-11-25T07:41:22;94333.94;;;5.83;72.48
6024;BME280;3040;42.654;23.296;2022-11-25T07:43:51;94320.88;;;5.78;72.54
6024;BME280;3040;42.654;23.296;2022-11-25T07:46:20;94331.63;;;6.30;72.03
6024;BME280;3040;42.654;23.296;2022-11-25T07:48:48;94325.75;;;6.33;70.72
6024;BME280;3040;42.654;23.296;2022-11-25T07:51:18;94321.28;;;6.50;70.22
6024;BME280;3040;42.654;23.296;2022-11-25T07:53:47;94341.34;;;6.77;68.16
6024;BME280;3040;42.654;23.296;2022-11-25T07:56:15;94340.56;;;7.03;68.11
6024;BME280;3040;42.654;23.296;2022-11-25T07:58:43;94335.59;;;7.10;68.24
6024;BME280;3040;42.654;23.296;2022-11-25T08:01:11;94323.63;;;6.86;68.44
6024;BME280;3040;42.654;23.296;2022-11-25T08:03:40;94342.59;;;7.23;68.91
6024;BME280;3040;42.654;23.296;2022-11-25T08:06:09;94354.97;;;7.65;67.14
6024;BME280;3040;42.654;23.296;2022-11-25T08:08:37;94322.16;;;7.49;67.19
6024;BME280;3040;42.654;23.296;2022-11-25T08:11:07;94273.22;;;7.09;66.22
6024;BME280;3040;42.654;23.296;2022-11-25T08:13:35;94359.31;;;7.61;65.32
6024;BME280;3040;42.654;23.296;2022-11-25T08:16:02;94235.56;;;7.12;66.11
6024;BME280;3040;42.654;23.296;2022-11-25T08:18:29;94362.75;;;8.08;64.54
6024;BME280;3040;42.654;23.296;2022-11-25T08:20:58;94345.19;;;8.42;62.59
6024;BME280;3040;42.654;23.296;2022-11-25T08:23:27;94342.34;;;7.71;65.09
6024;BME280;3040;42.654;23.296;2022-11-25T08:25:55;94371.31;;;8.14;63.37
6024;BME280;3040;42.654;23.296;2022-11-25T08:28:24;94366.00;;;7.67;64.93
6024;BME280;3040;42.654;23.296;2022-11-25T08:30:51;94373.22;;;7.24;65.91
6024;BME280;3040;42.654;23.296;2022-11-25T08:33:18;94367.94;;;8.05;66.37
6024;BME280;3040;42.654;23.296;2022-11-25T08:35:52;94348.06;;;7.82;65.55
6024;BME280;3040;42.654;23.296;2022-11-25T08:38:19;94368.50;;;8.19;63.93
6024;BME280;3040;42.654;23.296;2022-11-25T08:40:45;94351.97;;;8.22;64.50
6024;BME280;3040;42.654;23.296;2022-11-25T08:43:12;94367.00;;;8.47;63.24
6024;BME280;3040;42.654;23.296;2022-11-25T08:45:41;94349.34;;;8.51;63.23
6024;BME280;3040;42.654;23.296;2022-11-25T08:48:08;94361.84;;;8.04;64.65
6024;BME280;3040;42.654;23.296;2022-11-25T08:50:35;94368.75;;;7.88;64.82
6024;BME280;3040;42.654;23.296;2022-11-25T08:53:02;94366.16;;;7.71;64.88
6024;BME280;3040;42.654;23.296;2022-11-25T08:55:29;94361.63;;;7.80;64.53
6024;BME280;3040;42.654;23.296;2022-11-25T08:57:57;94353.41;;;7.64;65.07
6024;BME280;3040;42.654;23.296;2022-11-25T09:00:25;94353.56;;;7.68;64.30
6024;BME280;3040;42.654;23.296;2022-11-25T09:02:53;94345.03;;;7.45;64.33
6024;BME280;3040;42.654;23.296;2022-11-25T09:05:21;94356.25;;;7.42;65.36
6024;BME280;3040;42.654;23.296;2022-11-25T09:07:47;94347.34;;;7.64;65.18
6024;BME280;3040;42.654;23.296;2022-11-25T09:10:15;94286.28;;;7.14;64.91
6024;BME280;3040;42.654;23.296;2022-11-25T09:12:42;94367.00;;;8.01;64.21
6024;BME280;3040;42.654;23.296;2022-11-25T09:15:10;94307.75;;;7.76;64.78
6024;BME280;3040;42.654;23.296;2022-11-25T09:17:37;94371.47;;;8.55;63.28
6024;BME280;3040;42.654;23.296;2022-11-25T09:20:07;94363.84;;;8.54;63.26
6024;BME280;3040;42.654;23.296;2022-11-25T09:22:35;94372.75;;;8.49;63.07
6024;BME280;3040;42.654;23.296;2022-11-25T09:25:02;94366.88;;;8.27;63.05
6024;BME280;3040;42.654;23.296;2022-11-25T09:27:30;94359.63;;;7.68;64.55
6024;BME280;3040;42.654;23.296;2022-11-25T09:29:57;94372.25;;;8.18;64.02
6024;BME280;3040;42.654;23.296;2022-11-25T09:32:24;94363.53;;;8.55;62.56
6024;BME280;3040;42.654;23.296;2022-11-25T09:34:52;94363.47;;;8.35;65.07
6024;BME280;3040;42.654;23.296;2022-11-25T09:37:20;94368.09;;;9.17;61.47
6024;BME280;3040;42.654;23.296;2022-11-25T09:39:47;94333.44;;;9.34;61.17
6024;BME280;3040;42.654;23.296;2022-11-25T09:42:27;94337.25;;;9.46;61.32
6024;BME280;3040;42.654;23.296;2022-11-25T09:45:19;94351.97;;;8.81;60.86
6024;BME280;3040;42.654;23.296;2022-11-25T09:51:01;94365.06;;;9.27;61.28
6024;BME280;3040;42.654;23.296;2022-11-25T09:53:41;94361.28;;;8.37;62.54
6024;BME280;3040;42.654;23.296;2022-11-25T09:56:16;94357.84;;;8.66;61.70
6024;BME280;3040;42.654;23.296;2022-11-25T09:58:48;94366.75;;;7.85;63.99
6024;BME280;3040;42.654;23.296;2022-11-25T10:01:20;94370.28;;;8.74;62.87
6024;BME280;3040;42.654;23.296;2022-11-25T10:03:52;94369.13;;;8.54;63.05
6024;BME280;3040;42.654;23.296;2022-11-25T10:06:22;94354.59;;;8.60;63.15
6024;BME280;3040;42.654;23.296;2022-11-25T10:08:54;94346.16;;;8.67;62.74
6024;BME280;3040;42.654;23.296;2022-11-25T10:11:34;94362.16;;;8.49;62.43
6024;BME280;3040;42.654;23.296;2022-11-25T10:14:07;94300.34;;;7.99;61.94
6024;BME280;3040;42.654;23.296;2022-11-25T10:16:44;94361.34;;;8.11;63.88
6024;BME280;3040;42.654;23.296;2022-11-25T10:19:22;94372.31;;;8.01;64.26
6024;BME280;3040;42.654;23.296;2022-11-25T10:21:50;94374.03;;;7.97;64.36
6024;BME280;3040;42.654;23.296;2022-11-25T10:24:19;94355.06;;;7.86;63.94
6024;BME280;3040;42.654;23.296;2022-11-25T10:26:52;94373.09;;;8.39;62.95
6024;BME280;3040;42.654;23.296;2022-11-25T10:29:26;94368.00;;;8.34;62.86
6024;BME280;3040;42.654;23.296;2022-11-25T10:32:04;94361.06;;;8.12;61.99
6024;BME280;3040;42.654;23.296;2022-11-25T10:34:39;94353.91;;;7.96;62.64
6024;BME280;3040;42.654;23.296;2022-11-25T10:37:12;94355.88;;;7.69;64.44
6024;BME280;3040;42.654;23.296;2022-11-25T10:39:45;94381.91;;;7.59;65.27
6024;BME280;3040;42.654;23.296;2022-11-25T10:42:14;94376.97;;;8.04;62.75
6024;BME280;3040;42.654;23.296;2022-11-25T10:44:44;94368.13;;;8.29;62.66
6024;BME280;3040;42.654;23.296;2022-11-25T10:47:25;94335.13;;;7.89;61.56
6024;BME280;3040;42.654;23.296;2022-11-25T10:50:06;94363.06;;;8.53;60.51
6024;BME280;3040;42.654;23.296;2022-11-25T10:52:36;94370.19;;;8.62;59.78
6024;BME280;3040;42.654;23.296;2022-11-25T10:55:12;94337.94;;;8.30;60.51
6024;BME280;3040;42.654;23.296;2022-11-25T10:57:39;94366.38;;;8.04;62.09
6024;BME280;3040;42.654;23.296;2022-11-25T11:00:10;94363.13;;;7.98;62.34
6024;BME280;3040;42.654;23.296;2022-11-25T11:02:49;94358.28;;;7.45;63.87
6024;BME280;3040;42.654;23.296;2022-11-25T11:05:20;94289.09;;;6.91;64.07
6024;BME280;3040;42.654;23.296;2022-11-25T11:08:07;94381.88;;;7.76;64.39
6024;BME280;3040;42.654;23.296;2022-11-25T11:10:35;94397.50;;;7.43;65.58
6024;BME280;3040;42.654;23.296;2022-11-25T11:13:05;94405.75;;;7.33;66.17
6024;BME280;3040;42.654;23.296;2022-11-25T11:15:44;94390.16;;;7.06;66.83
6024;BME280;3040;42.654;23.296;2022-11-25T11:18:22;94369.97;;;6.92;68.35
6024;BME280;3040;42.654;23.296;2022-11-25T11:20:52;94394.22;;;7.12;68.42
6024;BME280;3040;42.654;23.296;2022-11-25T11:23:20;94385.81;;;7.01;68.14
6024;BME280;3040;42.654;23.296;2022-11-25T11:26:00;94383.31;;;6.87;67.82
6024;BME280;3040;42.654;23.296;2022-11-25T11:28:31;94378.34;;;6.77;68.42
6024;BME280;3040;42.654;23.296;2022-11-25T11:31:05;94375.84;;;6.72;69.09
6024;BME280;3040;42.654;23.296;2022-11-25T11:33:35;94385.50;;;6.85;68.65
6024;BME280;3040;42.654;23.296;2022-11-25T11:36:16;94406.34;;;6.78;69.18
6024;BME280;3040;42.654;23.296;2022-11-25T11:38:52;94404.75;;;6.77;70.27
6024;BME280;3040;42.654;23.296;2022-11-25T11:41:30;94416.72;;;6.66;70.61
6024;BME280;3040;42.654;23.296;2022-11-25T11:44:17;94407.84;;;6.62;70.85
6024;BME280;3040;42.654;23.296;2022-11-25T11:47:00;94410.06;;;6.69;71.66
6024;BME280;3040;42.654;23.296;2022-11-25T11:50:02;94410.69;;;6.74;71.64
6024;BME280;3040;42.654;23.296;2022-11-25T11:52:41;94401.03;;;6.78;71.81
6024;BME280;3040;42.654;23.296;2022-11-25T11:55:30;94403.69;;;6.78;70.30
6024;BME280;3040;42.654;23.296;2022-11-25T11:58:04;94403.22;;;6.76;70.69
6024;BME280;3040;42.654;23.296;2022-11-25T12:00:39;94388.09;;;6.60;70.47
6024;BME280;3040;42.654;23.296;2022-11-25T12:03:13;94381.78;;;6.86;70.49
6024;BME280;3040;42.654;23.296;2022-11-25T12:05:42;94400.75;;;7.06;70.26
6024;BME280;3040;42.654;23.296;2022-11-25T12:08:13;94396.09;;;7.20;69.67
6024;BME280;3040;42.654;23.296;2022-11-25T12:10:44;94393.13;;;6.87;70.01
6024;BME280;3040;42.654;23.296;2022-11-25T12:13:19;94401.06;;;6.95;69.62
6024;BME280;3040;42.654;23.296;2022-11-25T12:15:51;94386.13;;;6.82;70.49
6024;BME280;3040;42.654;23.296;2022-11-25T12:18:32;94407.31;;;7.17;69.58
6024;BME280;3040;42.654;23.296;2022-11-25T12:21:02;94402.78;;;7.52;67.73
6024;BME280;3040;42.654;23.296;2022-11-25T12:23:38;94397.63;;;7.64;67.19
6024;BME280;3040;42.654;23.296;2022-11-25T12:26:12;94405.56;;;7.29;69.13
6024;BME280;3040;42.654;23.296;2022-11-25T12:28:46;94402.31;;;7.07;68.43
6024;BME280;3040;42.654;23.296;2022-11-25T12:31:16;94400.91;;;6.92;69.68
6024;BME280;3040;42.654;23.296;2022-11-25T12:33:52;94402.00;;;7.08;68.46
6024;BME280;3040;42.654;23.296;2022-11-25T12:36:26;94401.06;;;7.13;68.58
6024;BME280;3040;42.654;23.296;2022-11-25T12:39:00;94400.22;;;6.69;69.99
6024;BME280;3040;42.654;23.296;2022-11-25T12:41:35;94393.53;;;6.63;70.60
6024;BME280;3040;42.654;23.296;2022-11-25T12:44:13;94404.25;;;6.58;71.27
6024;BME280;3040;42.654;23.296;2022-11-25T12:46:43;94391.03;;;6.58;70.74
6024;BME280;3040;42.654;23.296;2022-11-25T12:49:16;94393.53;;;6.63;70.60
6024;BME280;3040;42.654;23.296;2022-11-25T12:51:54;94394.75;;;6.57;71.06
6024;BME280;3040;42.654;23.296;2022-11-25T12:54:36;94375.19;;;6.58;71.39
6024;BME280;3040;42.654;23.296;2022-11-25T12:57:20;94375.81;;;6.55;70.97
6024;BME280;3040;42.654;23.296;2022-11-25T13:00:05;94376.41;;;6.52;71.27
6024;BME280;3040;42.654;23.296;2022-11-25T13:02:50;94373.31;;;6.50;70.83
6024;BME280;3040;42.654;23.296;2022-11-25T13:05:45;94359.75;;;6.34;71.89
6024;BME280;3040;42.654;23.296;2022-11-25T13:08:26;94369.41;;;6.39;71.67
6024;BME280;3040;42.654;23.296;2022-11-25T13:11:14;94368.63;;;6.47;71.51
6024;BME280;3040;42.654;23.296;2022-11-25T13:13:50;94372.84;;;6.48;71.16
6024;BME280;3040;42.654;23.296;2022-11-25T13:16:20;94271.38;;;5.84;71.22
6024;BME280;3040;42.654;23.296;2022-11-25T13:18:48;94375.50;;;6.48;70.96
6024;BME280;3040;42.654;23.296;2022-11-25T13:21:17;94353.88;;;6.46;71.47
6024;BME280;3040;42.654;23.296;2022-11-25T13:23:47;94356.81;;;6.36;70.60
6024;BME280;3040;42.654;23.296;2022-11-25T13:26:35;94353.88;;;6.46;70.00
6024;BME280;3040;42.654;23.296;2022-11-25T13:32:37;94377.50;;;6.42;70.35
6024;BME280;3040;42.654;23.296;2022-11-25T13:35:37;94393.22;;;6.56;69.24
6024;BME280;3040;42.654;23.296;2022-11-25T13:38:57;94390.25;;;6.58;69.04
6024;BME280;3040;42.654;23.296;2022-11-25T13:41:35;94401.00;;;6.61;69.17
6024;BME280;3040;42.654;23.296;2022-11-25T13:44:05;94286.59;;;5.87;69.54
6024;BME280;3040;42.654;23.296;2022-11-25T13:46:38;94382.66;;;6.56;69.77